sensor_id;sensor_type;location;lat;lon;timestamp;pressure;altitude;pressure_sealevel;temperature;humidity
3294;BME280;1659;51.470;6.770;2023-09-08T00:02:23;101509.63;;;20.16;62.91
3294;BME280;1659;51.470;6.770;2023-09-08T00:04:50;101502.88;;;20.08;63.13
3294;BME280;1659;51.470;6.770;2023-09-08T00:07:17;101502.22;;;20.03;63.16
3294;BME280;1659;51.470;6.770;2023-09-08T00:09:43;101503.22;;;20.00;63.46
3294;BME280;1659;51.470;6.770;2023-09-08T00:12:11;101497.00;;;19.99;63.41
3294;BME280;1659;51.470;6.770;2023-09-08T00:14:38;101497.25;;;19.93;63.71
3294;BME280;1659;51.470;6.770;2023-09-08T00:17:05;101499.16;;;19.91;63.77
3294;BME280;1659;51.470;6.770;2023-09-08T00:19:31;101492.13;;;19.89;63.77
3294;BME280;1659;51.470;6.770;2023-09-08T00:21:58;101486.09;;;19.84;64.03
3294;BME280;1659;51.470;6.770;2023-09-08T00:24:25;101489.84;;;19.79;63.97
3294;BME280;1659;51.470;6.770;2023-09-08T00:26:52;101484.72;;;19.75;64.28
3294;BME280;1659;51.470;6.770;2023-09-08T00:29:20;101492.94;;;19.70;64.36
3294;BME280;1659;51.470;6.770;2023-09-08T00:31:46;101494.81;;;19.68;64.25
3294;BME280;1659;51.470;6.770;2023-09-08T00:34:13;101490.38;;;19.67;64.42
3294;BME280;1659;51.470;6.770;2023-09-08T00:36:39;101481.34;;;19.70;64.49
3294;BME280;1659;51.470;6.770;2023-09-08T00:39:06;101490.25;;;19.70;64.42
3294;BME280;1659;51.470;6.770;2023-09-08T00:41:32;101479.59;;;19.69;64.54
3294;BME280;1659;51.470;6.770;2023-09-08T00:43:59;101490.31;;;19.69;64.47
3294;BME280;1659;51.470;6.770;2023-09-08T00:46:27;101484.16;;;19.67;64.76
3294;BME280;1659;51.470;6.770;2023-09-08T00:48:55;101482.34;;;19.67;64.45
3294;BME280;1659;51.470;6.770;2023-09-08T00:51:22;101480.63;;;19.66;64.80
3294;BME280;1659;51.470;6.770;2023-09-08T00:53:49;101481.53;;;19.65;65.00
3294;BME280;1659;51.470;6.770;2023-09-08T00:56:16;101484.28;;;19.63;65.00
3294;BME280;1659;51.470;6.770;2023-09-08T00:58:43;101483.56;;;19.60;64.88
3294;BME280;1659;51.470;6.770;2023-09-08T01:01:09;101490.00;;;19.56;65.14
3294;BME280;1659;51.470;6.770;2023-09-08T01:03:37;101488.47;;;19.50;65.37
3294;BME280;1659;51.470;6.770;2023-09-08T01:06:04;101492.28;;;19.44;65.57
3294;BME280;1659;51.470;6.770;2023-09-08T01:08:31;101494.22;;;19.41;65.83
3294;BME280;1659;51.470;6.770;2023-09-08T01:10:58;101485.34;;;19.40;65.74
3294;BME280;1659;51.470;6.770;2023-09-08T01:13:25;101489.91;;;19.38;65.78
3294;BME280;1659;51.470;6.770;2023-09-08T01:15:51;101489.09;;;19.36;66.04
3294;BME280;1659;51.470;6.770;2023-09-08T01:18:18;101489.22;;;19.33;66.00
3294;BME280;1659;51.470;6.770;2023-09-08T01:21:42;101484.94;;;19.29;66.19
3294;BME280;1659;51.470;6.770;2023-09-08T01:24:27;101485.06;;;19.26;66.33
3294;BME280;1659;51.470;6.770;2023-09-08T01:27:00;101489.69;;;19.22;66.30
3294;BME280;1659;51.470;6.770;2023-09-08T01:29:28;101491.72;;;19.17;66.37
3294;BME280;1659;51.470;6.770;2023-09-08T01:31:56;101483.91;;;19.11;66.79
3294;BME280;1659;51.470;6.770;2023-09-08T01:34:23;101487.63;;;19.09;66.92
3294;BME280;1659;51.470;6.770;2023-09-08T01:36:50;101496.84;;;19.01;67.14
3294;BME280;1659;51.470;6.770;2023-09-08T01:39:16;101485.47;;;18.96;67.29
3294;BME280;1659;51.470;6.770;2023-09-08T01:41:43;101486.59;;;18.91;67.46
3294;BME280;1659;51.470;6.770;2023-09-08T01:44:11;101479.66;;;18.85;67.70
3294;BME280;1659;51.470;6.770;2023-09-08T01:46:37;101487.00;;;18.80;67.93
3294;BME280;1659;51.470;6.770;2023-09-08T01:49:06;101479.91;;;18.79;67.94
3294;BME280;1659;51.470;6.770;2023-09-08T01:51:32;101478.94;;;18.80;67.98
3294;BME280;1659;51.470;6.770;2023-09-08T01:53:59;101475.53;;;18.76;68.14
3294;BME280;1659;51.470;6.770;2023-09-08T01:56:25;101469.38;;;18.74;68.28
3294;BME280;1659;51.470;6.770;2023-09-08T01:58:52;101470.25;;;18.75;68.39
3294;BME280;1659;51.470;6.770;2023-09-08T02:01:20;101472.25;;;18.69;68.57
3294;BME280;1659;51.470;6.770;2023-09-08T02:03:46;101465.22;;;18.67;68.63
3294;BME280;1659;51.470;6.770;2023-09-08T02:06:13;101476.94;;;18.64;68.72
3294;BME280;1659;51.470;6.770;2023-09-08T02:08:39;101479.78;;;18.60;68.62
3294;BME280;1659;51.470;6.770;2023-09-08T02:11:06;101472.06;;;18.52;69.06
3294;BME280;1659;51.470;6.770;2023-09-08T02:13:32;101463.44;;;18.45;69.40
3294;BME280;1659;51.470;6.770;2023-09-08T02:15:59;101469.81;;;18.41;69.64
3294;BME280;1659;51.470;6.770;2023-09-08T02:18:27;101479.78;;;18.38;69.79
3294;BME280;1659;51.470;6.770;2023-09-08T02:20:53;101476.31;;;18.36;69.77
3294;BME280;1659;51.470;6.770;2023-09-08T02:23:20;101473.69;;;18.34;69.83
3294;BME280;1659;51.470;6.770;2023-09-08T02:25:47;101486.19;;;18.34;69.96
3294;BME280;1659;51.470;6.770;2023-09-08T02:28:13;101483.63;;;18.30;70.01
3294;BME280;1659;51.470;6.770;2023-09-08T02:30:40;101479.28;;;18.28;70.24
3294;BME280;1659;51.470;6.770;2023-09-08T02:33:06;101476.75;;;18.25;70.32
3294;BME280;1659;51.470;6.770;2023-09-08T02:35:37;101475.88;;;18.24;70.52
3294;BME280;1659;51.470;6.770;2023-09-08T02:38:03;101474.16;;;18.22;70.60
3294;BME280;1659;51.470;6.770;2023-09-08T02:40:30;101472.50;;;18.19;70.44
3294;BME280;1659;51.470;6.770;2023-09-08T02:42:59;101474.44;;;18.16;70.79
3294;BME280;1659;51.470;6.770;2023-09-08T02:45:25;101473.75;;;18.10;71.13
3294;BME280;1659;51.470;6.770;2023-09-08T02:47:52;101474.81;;;18.05;71.35
3294;BME280;1659;51.470;6.770;2023-09-08T02:50:19;101472.28;;;18.02;71.69
3294;BME280;1659;51.470;6.770;2023-09-08T02:52:47;101476.75;;;18.01;71.33
3294;BME280;1659;51.470;6.770;2023-09-08T02:55:13;101474.13;;;18.00;71.63
3294;BME280;1659;51.470;6.770;2023-09-08T02:57:40;101475.88;;;18.01;71.69
3294;BME280;1659;51.470;6.770;2023-09-08T03:00:07;101475.06;;;17.99;71.74
3294;BME280;1659;51.470;6.770;2023-09-08T03:02:34;101477.06;;;17.93;71.98
3294;BME280;1659;51.470;6.770;2023-09-08T03:05:00;101469.25;;;17.87;72.18
3294;BME280;1659;51.470;6.770;2023-09-08T03:07:27;101471.09;;;17.85;72.19
3294;BME280;1659;51.470;6.770;2023-09-08T03:09:55;101476.53;;;17.82;72.51
3294;BME280;1659;51.470;6.770;2023-09-08T03:12:22;101473.06;;;17.80;72.55
3294;BME280;1659;51.470;6.770;2023-09-08T03:14:48;101463.31;;;17.79;72.67
3294;BME280;1659;51.470;6.770;2023-09-08T03:17:15;101465.09;;;17.79;72.73
3294;BME280;1659;51.470;6.770;2023-09-08T03:19:44;101462.50;;;17.77;72.92
3294;BME280;1659;51.470;6.770;2023-09-08T03:22:11;101462.50;;;17.77;72.86
3294;BME280;1659;51.470;6.770;2023-09-08T03:24:37;101465.19;;;17.77;73.00
3294;BME280;1659;51.470;6.770;2023-09-08T03:27:05;101460.75;;;17.76;72.98
3294;BME280;1659;51.470;6.770;2023-09-08T03:29:32;101453.78;;;17.72;73.12
3294;BME280;1659;51.470;6.770;2023-09-08T03:31:59;101449.47;;;17.68;73.31
3294;BME280;1659;51.470;6.770;2023-09-08T03:34:25;101449.56;;;17.65;73.40
3294;BME280;1659;51.470;6.770;2023-09-08T03:36:53;101450.41;;;17.67;73.50
3294;BME280;1659;51.470;6.770;2023-09-08T03:39:19;101449.56;;;17.65;73.59
3294;BME280;1659;51.470;6.770;2023-09-08T03:41:46;101447.03;;;17.62;73.54
3294;BME280;1659;51.470;6.770;2023-09-08T03:44:14;101454.16;;;17.61;73.65
3294;BME280;1659;51.470;6.770;2023-09-08T03:46:40;101449.81;;;17.59;73.79
3294;BME280;1659;51.470;6.770;2023-09-08T03:49:07;101450.78;;;17.56;73.86
3294;BME280;1659;51.470;6.770;2023-09-08T03:51:33;101449.13;;;17.53;73.96
3294;BME280;1659;51.470;6.770;2023-09-08T03:54:00;101457.13;;;17.53;73.93
3294;BME280;1659;51.470;6.770;2023-09-08T03:56:28;101456.38;;;17.50;74.08
3294;BME280;1659;51.470;6.770;2023-09-08T03:58:54;101450.31;;;17.45;74.43
3294;BME280;1659;51.470;6.770;2023-09-08T04:01:22;101447.81;;;17.40;74.43
3294;BME280;1659;51.470;6.770;2023-09-08T04:03:49;101448.81;;;17.38;74.58
3294;BME280;1659;51.470;6.770;2023-09-08T04:06:15;101456.88;;;17.36;74.67
3294;BME280;1659;51.470;6.770;2023-09-08T04:08:42;101452.44;;;17.35;74.79
3294;BME280;1659;51.470;6.770;2023-09-08T04:11:08;101450.66;;;17.35;74.74
3294;BME280;1659;51.470;6.770;2023-09-08T04:13:35;101448.06;;;17.34;74.84
3294;BME280;1659;51.470;6.770;2023-09-08T04:16:01;101446.34;;;17.31;74.78
3294;BME280;1659;51.470;6.770;2023-09-08T04:18:29;101448.16;;;17.31;74.95
3294;BME280;1659;51.470;6.770;2023-09-08T04:20:56;101457.13;;;17.30;75.02
3294;BME280;1659;51.470;6.770;2023-09-08T04:23:22;101449.16;;;17.28;75.11
3294;BME280;1659;51.470;6.770;2023-09-08T04:25:49;101456.25;;;17.28;75.11
3294;BME280;1659;51.470;6.770;2023-09-08T04:28:15;101455.47;;;17.26;75.28
3294;BME280;1659;51.470;6.770;2023-09-08T04:30:43;101454.59;;;17.25;75.29
3294;BME280;1659;51.470;6.770;2023-09-08T04:33:10;101458.22;;;17.23;75.52
3294;BME280;1659;51.470;6.770;2023-09-08T04:35:37;101460.03;;;17.22;75.47
3294;BME280;1659;51.470;6.770;2023-09-08T04:38:04;101463.69;;;17.20;75.59
3294;BME280;1659;51.470;6.770;2023-09-08T04:40:31;101457.50;;;17.17;75.61
3294;BME280;1659;51.470;6.770;2023-09-08T04:42:57;101462.09;;;17.14;75.77
3294;BME280;1659;51.470;6.770;2023-09-08T04:45:24;101454.22;;;17.11;75.91
3294;BME280;1659;51.470;6.770;2023-09-08T04:47:50;101464.00;;;17.10;75.86
3294;BME280;1659;51.470;6.770;2023-09-08T04:50:17;101468.53;;;17.08;75.95
3294;BME280;1659;51.470;6.770;2023-09-08T04:52:45;101465.91;;;17.07;76.04
3294;BME280;1659;51.470;6.770;2023-09-08T04:55:11;101469.28;;;17.12;76.00
3294;BME280;1659;51.470;6.770;2023-09-08T04:57:38;101462.09;;;17.14;76.01
3294;BME280;1659;51.470;6.770;2023-09-08T05:00:05;101466.47;;;17.16;76.12
3294;BME280;1659;51.470;6.770;2023-09-08T05:02:32;101468.09;;;17.21;76.22
3294;BME280;1659;51.470;6.770;2023-09-08T05:04:59;101465.31;;;17.24;76.48
3294;BME280;1659;51.470;6.770;2023-09-08T05:07:26;101462.56;;;17.27;76.24
3294;BME280;1659;51.470;6.770;2023-09-08T05:09:54;101457.78;;;17.35;76.28
3294;BME280;1659;51.470;6.770;2023-09-08T05:12:20;101459.66;;;17.33;76.24
3294;BME280;1659;51.470;6.770;2023-09-08T05:14:47;101454.09;;;17.39;76.29
3294;BME280;1659;51.470;6.770;2023-09-08T05:17:14;101458.13;;;17.51;76.09
3294;BME280;1659;51.470;6.770;2023-09-08T05:19:40;101462.13;;;17.63;76.06
3294;BME280;1659;51.470;6.770;2023-09-08T05:22:07;101463.16;;;17.82;75.74
3294;BME280;1659;51.470;6.770;2023-09-08T05:24:33;101461.59;;;18.02;75.39
3294;BME280;1659;51.470;6.770;2023-09-08T05:27:01;101469.94;;;18.16;75.31
3294;BME280;1659;51.470;6.770;2023-09-08T05:29:28;101478.22;;;18.32;75.05
3294;BME280;1659;51.470;6.770;2023-09-08T05:31:54;101469.53;;;18.49;74.86
3294;BME280;1659;51.470;6.770;2023-09-08T05:34:21;101469.16;;;18.58;74.75
3294;BME280;1659;51.470;6.770;2023-09-08T05:36:47;101459.00;;;18.66;74.72
3294;BME280;1659;51.470;6.770;2023-09-08T05:39:14;101467.84;;;18.68;74.73
3294;BME280;1659;51.470;6.770;2023-09-08T05:41:42;101459.25;;;18.82;74.76
3294;BME280;1659;51.470;6.770;2023-09-08T05:44:10;101464.16;;;18.93;74.50
3294;BME280;1659;51.470;6.770;2023-09-08T05:46:38;101468.31;;;19.00;74.40
3294;BME280;1659;51.470;6.770;2023-09-08T05:49:04;101459.47;;;18.98;74.38
3294;BME280;1659;51.470;6.770;2023-09-08T05:51:32;101473.41;;;19.07;74.34
3294;BME280;1659;51.470;6.770;2023-09-08T05:53:58;101474.91;;;19.14;74.41
3294;BME280;1659;51.470;6.770;2023-09-08T05:56:29;101472.53;;;19.27;74.22
3294;BME280;1659;51.470;6.770;2023-09-08T05:58:56;101474.81;;;19.36;73.88
3294;BME280;1659;51.470;6.770;2023-09-08T06:01:24;101465.47;;;19.44;73.77
3294;BME280;1659;51.470;6.770;2023-09-08T06:03:50;101469.06;;;19.45;73.91
3294;BME280;1659;51.470;6.770;2023-09-08T06:06:17;101470.59;;;19.51;73.84
3294;BME280;1659;51.470;6.770;2023-09-08T06:08:43;101470.16;;;19.60;73.61
3294;BME280;1659;51.470;6.770;2023-09-08T06:11:10;101469.28;;;19.80;73.43
3294;BME280;1659;51.470;6.770;2023-09-08T06:13:37;101472.84;;;19.99;73.23
3294;BME280;1659;51.470;6.770;2023-09-08T06:16:04;101468.34;;;20.19;73.09
3294;BME280;1659;51.470;6.770;2023-09-08T06:18:32;101472.66;;;20.41;72.82
3294;BME280;1659;51.470;6.770;2023-09-08T06:21:05;101468.91;;;20.64;72.62
3294;BME280;1659;51.470;6.770;2023-09-08T06:23:32;101467.16;;;20.80;72.52
3294;BME280;1659;51.470;6.770;2023-09-08T06:25:58;101467.97;;;21.00;72.63
3294;BME280;1659;51.470;6.770;2023-09-08T06:28:25;101477.50;;;21.23;72.30
3294;BME280;1659;51.470;6.770;2023-09-08T06:30:52;101478.88;;;21.49;72.03
3294;BME280;1659;51.470;6.770;2023-09-08T06:33:18;101473.91;;;21.75;71.77
3294;BME280;1659;51.470;6.770;2023-09-08T06:35:47;101479.78;;;21.99;71.40
3294;BME280;1659;51.470;6.770;2023-09-08T06:38:14;101475.00;;;22.20;71.16
3294;BME280;1659;51.470;6.770;2023-09-08T06:40:40;101474.88;;;22.39;71.04
3294;BME280;1659;51.470;6.770;2023-09-08T06:43:07;101473.69;;;22.59;70.76
3294;BME280;1659;51.470;6.770;2023-09-08T06:45:33;101481.91;;;22.88;70.16
3294;BME280;1659;51.470;6.770;2023-09-08T06:48:00;101469.50;;;23.15;69.52
3294;BME280;1659;51.470;6.770;2023-09-08T06:50:26;101471.84;;;23.36;68.85
3294;BME280;1659;51.470;6.770;2023-09-08T06:52:56;101470.53;;;23.58;68.40
3294;BME280;1659;51.470;6.770;2023-09-08T06:55:23;101473.41;;;23.83;67.77
3294;BME280;1659;51.470;6.770;2023-09-08T06:57:49;101483.34;;;24.11;67.35
3294;BME280;1659;51.470;6.770;2023-09-08T07:00:16;101473.63;;;24.36;66.69
3294;BME280;1659;51.470;6.770;2023-09-08T07:02:45;101470.41;;;24.58;66.00
3294;BME280;1659;51.470;6.770;2023-09-08T07:05:12;101464.41;;;24.80;65.60
3294;BME280;1659;51.470;6.770;2023-09-08T07:07:38;101461.13;;;25.02;64.88
3294;BME280;1659;51.470;6.770;2023-09-08T07:10:08;101466.00;;;25.23;64.07
3294;BME280;1659;51.470;6.770;2023-09-08T07:12:35;101478.06;;;25.44;63.28
3294;BME280;1659;51.470;6.770;2023-09-08T07:15:01;101469.63;;;25.62;62.66
3294;BME280;1659;51.470;6.770;2023-09-08T07:17:28;101471.31;;;25.89;61.83
3294;BME280;1659;51.470;6.770;2023-09-08T07:19:54;101470.88;;;26.08;61.00
3294;BME280;1659;51.470;6.770;2023-09-08T07:22:21;101476.34;;;26.19;60.42
3294;BME280;1659;51.470;6.770;2023-09-08T07:24:47;101483.03;;;26.39;59.72
3294;BME280;1659;51.470;6.770;2023-09-08T07:27:15;101482.63;;;26.56;59.00
3294;BME280;1659;51.470;6.770;2023-09-08T07:29:43;101482.78;;;26.79;58.35
3294;BME280;1659;51.470;6.770;2023-09-08T07:32:10;101484.44;;;27.40;56.88
3294;BME280;1659;51.470;6.770;2023-09-08T07:34:36;101484.75;;;27.82;55.12
3294;BME280;1659;51.470;6.770;2023-09-08T07:37:03;101478.63;;;28.35;54.10
3294;BME280;1659;51.470;6.770;2023-09-08T07:39:29;101493.50;;;28.95;51.79
3294;BME280;1659;51.470;6.770;2023-09-08T07:41:57;101489.19;;;29.25;51.11
3294;BME280;1659;51.470;6.770;2023-09-08T07:44:25;101481.06;;;29.35;49.99
3294;BME280;1659;51.470;6.770;2023-09-08T07:46:51;101481.63;;;29.60;49.02
3294;BME280;1659;51.470;6.770;2023-09-08T07:49:18;101477.47;;;29.77;48.35
3294;BME280;1659;51.470;6.770;2023-09-08T07:51:45;101481.75;;;29.79;47.86
3294;BME280;1659;51.470;6.770;2023-09-08T07:54:12;101483.03;;;30.06;46.68
3294;BME280;1659;51.470;6.770;2023-09-08T07:56:39;101481.03;;;30.18;46.22
3294;BME280;1659;51.470;6.770;2023-09-08T07:59:06;101484.28;;;30.02;45.79
3294;BME280;1659;51.470;6.770;2023-09-08T08:01:34;101481.34;;;29.84;45.57
3294;BME280;1659;51.470;6.770;2023-09-08T08:04:01;101476.09;;;29.92;45.45
3294;BME280;1659;51.470;6.770;2023-09-08T08:06:28;101476.00;;;30.13;44.34
3294;BME280;1659;51.470;6.770;2023-09-08T08:08:55;101473.22;;;30.44;43.65
3294;BME280;1659;51.470;6.770;2023-09-08T08:11:22;101479.84;;;30.71;43.46
3294;BME280;1659;51.470;6.770;2023-09-08T08:13:48;101480.13;;;30.67;43.43
3294;BME280;1659;51.470;6.770;2023-09-08T08:16:15;101476.13;;;30.81;42.80
3294;BME280;1659;51.470;6.770;2023-09-08T08:18:43;101476.72;;;30.95;42.10
3294;BME280;1659;51.470;6.770;2023-09-08T08:21:09;101473.09;;;30.84;41.53
3294;BME280;1659;51.470;6.770;2023-09-08T08:23:36;101468.94;;;31.10;40.70
3294;BME280;1659;51.470;6.770;2023-09-08T08:26:03;101474.38;;;31.00;40.38
3294;BME280;1659;51.470;6.770;2023-09-08T08:28:30;101475.97;;;30.93;40.21
3294;BME280;1659;51.470;6.770;2023-09-08T08:30:57;101478.72;;;31.02;39.98
3294;BME280;1659;51.470;6.770;2023-09-08T08:33:23;101470.06;;;31.27;39.54
3294;BME280;1659;51.470;6.770;2023-09-08T08:35:53;101470.56;;;31.59;38.88
3294;BME280;1659;51.470;6.770;2023-09-08T08:38:20;101471.72;;;31.57;38.52
3294;BME280;1659;51.470;6.770;2023-09-08T08:40:46;101461.06;;;31.64;38.36
3294;BME280;1659;51.470;6.770;2023-09-08T08:43:13;101469.41;;;31.62;38.01
3294;BME280;1659;51.470;6.770;2023-09-08T08:45:41;101467.66;;;31.61;37.98
3294;BME280;1659;51.470;6.770;2023-09-08T08:48:08;101467.91;;;31.77;37.61
3294;BME280;1659;51.470;6.770;2023-09-08T08:50:37;101466.25;;;31.94;36.99
3294;BME280;1659;51.470;6.770;2023-09-08T08:53:06;101471.31;;;31.89;36.82
3294;BME280;1659;51.470;6.770;2023-09-08T08:55:34;101473.06;;;32.08;36.58
3294;BME280;1659;51.470;6.770;2023-09-08T08:58:03;101471.78;;;32.30;36.16
3294;BME280;1659;51.470;6.770;2023-09-08T09:00:34;101475.31;;;32.41;35.77
3294;BME280;1659;51.470;6.770;2023-09-08T09:03:01;101480.56;;;32.34;35.34
3294;BME280;1659;51.470;6.770;2023-09-08T09:05:30;101477.56;;;32.27;35.42
3294;BME280;1659;51.470;6.770;2023-09-08T09:07:57;101478.44;;;32.28;35.43
3294;BME280;1659;51.470;6.770;2023-09-08T09:10:26;101470.09;;;32.47;35.07
3294;BME280;1659;51.470;6.770;2023-09-08T09:12:52;101470.66;;;32.69;34.69
3294;BME280;1659;51.470;6.770;2023-09-08T09:15:28;101473.19;;;32.80;34.68
3294;BME280;1659;51.470;6.770;2023-09-08T09:18:02;101476.34;;;33.11;34.21
3294;BME280;1659;51.470;6.770;2023-09-08T09:20:29;101475.03;;;33.16;34.20
3294;BME280;1659;51.470;6.770;2023-09-08T09:22:56;101467.97;;;33.39;33.95
3294;BME280;1659;51.470;6.770;2023-09-08T09:25:23;101472.47;;;33.40;33.74
3294;BME280;1659;51.470;6.770;2023-09-08T09:27:55;101472.72;;;33.55;33.27
3294;BME280;1659;51.470;6.770;2023-09-08T09:30:22;101476.41;;;33.20;33.44
3294;BME280;1659;51.470;6.770;2023-09-08T09:32:58;101476.69;;;32.90;33.85
3294;BME280;1659;51.470;6.770;2023-09-08T09:35:39;101475.66;;;32.91;33.92
3294;BME280;1659;51.470;6.770;2023-09-08T09:38:06;101474.69;;;33.01;33.96
3294;BME280;1659;51.470;6.770;2023-09-08T09:40:33;101468.34;;;33.36;33.80
3294;BME280;1659;51.470;6.770;2023-09-08T09:43:01;101467.19;;;33.73;33.41
3294;BME280;1659;51.470;6.770;2023-09-08T09:45:29;101459.91;;;33.90;33.24
3294;BME280;1659;51.470;6.770;2023-09-08T09:47:55;101464.75;;;34.13;33.13
3294;BME280;1659;51.470;6.770;2023-09-08T09:50:28;101457.97;;;34.33;32.61
3294;BME280;1659;51.470;6.770;2023-09-08T09:52:57;101459.03;;;34.40;32.48
3294;BME280;1659;51.470;6.770;2023-09-08T09:55:24;101459.75;;;34.42;32.71
3294;BME280;1659;51.470;6.770;2023-09-08T09:57:51;101463.41;;;34.76;32.81
3294;BME280;1659;51.470;6.770;2023-09-08T10:00:23;101473.31;;;35.18;32.11
3294;BME280;1659;51.470;6.770;2023-09-08T10:02:51;101460.41;;;35.43;31.71
3294;BME280;1659;51.470;6.770;2023-09-08T10:05:18;101461.47;;;35.34;32.04
3294;BME280;1659;51.470;6.770;2023-09-08T10:07:46;101467.50;;;35.21;31.80
3294;BME280;1659;51.470;6.770;2023-09-08T10:10:13;101464.22;;;34.93;31.71
3294;BME280;1659;51.470;6.770;2023-09-08T10:12:43;101464.94;;;34.95;31.78
3294;BME280;1659;51.470;6.770;2023-09-08T10:15:10;101457.88;;;35.09;31.62
3294;BME280;1659;51.470;6.770;2023-09-08T10:17:40;101465.63;;;34.89;32.15
3294;BME280;1659;51.470;6.770;2023-09-08T10:20:10;101471.81;;;34.74;32.03
3294;BME280;1659;51.470;6.770;2023-09-08T10:22:41;101465.97;;;34.77;31.92
3294;BME280;1659;51.470;6.770;2023-09-08T10:25:09;101467.50;;;34.72;31.88
3294;BME280;1659;51.470;6.770;2023-09-08T10:27:39;101450.84;;;35.23;31.28
3294;BME280;1659;51.470;6.770;2023-09-08T10:30:07;101453.72;;;35.38;31.27
3294;BME280;1659;51.470;6.770;2023-09-08T10:32:37;101459.66;;;35.58;30.92
3294;BME280;1659;51.470;6.770;2023-09-08T10:35:07;101453.06;;;35.91;31.08
3294;BME280;1659;51.470;6.770;2023-09-08T10:37:34;101454.81;;;35.84;31.00
3294;BME280;1659;51.470;6.770;2023-09-08T10:40:28;101454.22;;;35.49;31.06
3294;BME280;1659;51.470;6.770;2023-09-08T10:43:17;101449.47;;;35.83;31.13
3294;BME280;1659;51.470;6.770;2023-09-08T10:45:45;101455.16;;;36.21;30.70
3294;BME280;1659;51.470;6.770;2023-09-08T10:48:14;101457.13;;;36.35;30.57
3294;BME280;1659;51.470;6.770;2023-09-08T10:50:41;101452.91;;;36.24;30.21
3294;BME280;1659;51.470;6.770;2023-09-08T10:53:12;101450.97;;;36.33;30.07
3294;BME280;1659;51.470;6.770;2023-09-08T10:55:40;101458.28;;;36.87;29.89
3294;BME280;1659;51.470;6.770;2023-09-08T10:58:10;101458.59;;;36.92;29.50
3294;BME280;1659;51.470;6.770;2023-09-08T11:00:44;101457.72;;;36.77;29.87
3294;BME280;1659;51.470;6.770;2023-09-08T11:03:11;101462.78;;;36.88;29.84
3294;BME280;1659;51.470;6.770;2023-09-08T11:05:41;101454.94;;;37.15;29.31
3294;BME280;1659;51.470;6.770;2023-09-08T11:08:08;101454.59;;;37.48;28.91
3294;BME280;1659;51.470;6.770;2023-09-08T11:10:35;101453.22;;;37.14;29.41
3294;BME280;1659;51.470;6.770;2023-09-08T11:13:04;101460.84;;;37.12;29.40
3294;BME280;1659;51.470;6.770;2023-09-08T11:15:31;101455.56;;;37.55;28.98
3294;BME280;1659;51.470;6.770;2023-09-08T11:18:04;101458.91;;;37.65;28.47
3294;BME280;1659;51.470;6.770;2023-09-08T11:20:31;101451.75;;;37.56;28.71
3294;BME280;1659;51.470;6.770;2023-09-08T11:22:59;101461.63;;;37.35;28.84
3294;BME280;1659;51.470;6.770;2023-09-08T11:25:26;101455.03;;;37.07;28.98
3294;BME280;1659;51.470;6.770;2023-09-08T11:27:54;101454.03;;;36.99;29.04
3294;BME280;1659;51.470;6.770;2023-09-08T11:30:20;101457.97;;;37.05;29.29
3294;BME280;1659;51.470;6.770;2023-09-08T11:32:47;101458.97;;;37.27;28.88
3294;BME280;1659;51.470;6.770;2023-09-08T11:35:14;101446.94;;;37.73;28.41
3294;BME280;1659;51.470;6.770;2023-09-08T11:37:41;101453.91;;;38.20;28.08
3294;BME280;1659;51.470;6.770;2023-09-08T11:40:10;101440.84;;;38.29;27.75
3294;BME280;1659;51.470;6.770;2023-09-08T11:42:38;101449.50;;;38.26;27.90
3294;BME280;1659;51.470;6.770;2023-09-08T11:45:10;101443.75;;;38.64;27.54
3294;BME280;1659;51.470;6.770;2023-09-08T11:47:39;101436.28;;;39.07;27.22
3294;BME280;1659;51.470;6.770;2023-09-08T11:50:07;101438.59;;;39.39;26.77
3294;BME280;1659;51.470;6.770;2023-09-08T11:52:34;101437.94;;;39.37;26.73
3294;BME280;1659;51.470;6.770;2023-09-08T11:55:01;101432.81;;;39.62;27.00
3294;BME280;1659;51.470;6.770;2023-09-08T11:57:30;101430.63;;;39.99;26.26
3294;BME280;1659;51.470;6.770;2023-09-08T11:59:56;101435.16;;;40.13;26.29
3294;BME280;1659;51.470;6.770;2023-09-08T12:02:23;101430.75;;;39.84;26.43
3294;BME280;1659;51.470;6.770;2023-09-08T12:04:53;101423.16;;;39.93;26.29
3294;BME280;1659;51.470;6.770;2023-09-08T12:07:19;101428.56;;;40.21;26.17
3294;BME280;1659;51.470;6.770;2023-09-08T12:09:46;101425.66;;;40.43;26.23
3294;BME280;1659;51.470;6.770;2023-09-08T12:12:13;101423.13;;;40.88;25.78
3294;BME280;1659;51.470;6.770;2023-09-08T12:14:44;101423.78;;;40.90;25.55
3294;BME280;1659;51.470;6.770;2023-09-08T12:17:10;101420.53;;;41.00;25.94
3294;BME280;1659;51.470;6.770;2023-09-08T12:19:40;101423.31;;;40.80;25.63
3294;BME280;1659;51.470;6.770;2023-09-08T12:22:07;101421.94;;;40.02;26.28
3294;BME280;1659;51.470;6.770;2023-09-08T12:24:46;101422.38;;;40.12;26.19
3294;BME280;1659;51.470;6.770;2023-09-08T12:27:13;101417.03;;;40.04;25.93
3294;BME280;1659;51.470;6.770;2023-09-08T12:29:41;101422.53;;;39.97;26.00
3294;BME280;1659;51.470;6.770;2023-09-08T12:32:09;101424.16;;;39.85;26.24
3294;BME280;1659;51.470;6.770;2023-09-08T12:34:35;101415.56;;;40.21;25.88
3294;BME280;1659;51.470;6.770;2023-09-08T12:37:02;101404.78;;;40.60;25.41
3294;BME280;1659;51.470;6.770;2023-09-08T12:39:30;101411.81;;;40.96;25.33
3294;BME280;1659;51.470;6.770;2023-09-08T12:41:57;101409.84;;;41.17;24.91
3294;BME280;1659;51.470;6.770;2023-09-08T12:44:23;101410.97;;;40.89;25.12
3294;BME280;1659;51.470;6.770;2023-09-08T12:46:50;101409.22;;;40.61;25.42
3294;BME280;1659;51.470;6.770;2023-09-08T12:49:18;101408.97;;;40.22;25.74
3294;BME280;1659;51.470;6.770;2023-09-08T12:51:44;101408.31;;;40.07;25.54
3294;BME280;1659;51.470;6.770;2023-09-08T12:54:11;101411.81;;;39.88;25.69
3294;BME280;1659;51.470;6.770;2023-09-08T12:56:38;101406.50;;;39.79;25.66
3294;BME280;1659;51.470;6.770;2023-09-08T12:59:04;101399.06;;;39.45;26.10
3294;BME280;1659;51.470;6.770;2023-09-08T13:01:31;101403.22;;;40.24;25.36
3294;BME280;1659;51.470;6.770;2023-09-08T13:03:57;101397.09;;;40.49;24.93
3294;BME280;1659;51.470;6.770;2023-09-08T13:06:25;101396.91;;;40.70;25.11
3294;BME280;1659;51.470;6.770;2023-09-08T13:08:52;101398.59;;;40.98;24.76
3294;BME280;1659;51.470;6.770;2023-09-08T13:11:19;101393.69;;;40.87;24.32
3294;BME280;1659;51.470;6.770;2023-09-08T13:13:46;101389.38;;;41.18;24.38